sensor_id;sensor_type;location;lat;lon;timestamp;temperature;humidity
21271;DHT22;10795;50.796;3.860;2022-10-26T00:02:20;14.90;99.90
21271;DHT22;10795;50.796;3.860;2022-10-26T00:04:46;14.80;99.90
21271;DHT22;10795;50.796;3.860;2022-10-26T00:07:11;14.80;99.90
21271;DHT22;10795;50.796;3.860;2022-10-26T00:09:37;15.30;99.90
21271;DHT22;10795;50.796;3.860;2022-10-26T00:12:03;15.10;99.90
21271;DHT22;10795;50.796;3.860;2022-10-26T00:14:29;15.20;99.90
21271;DHT22;10795;50.796;3.860;2022-10-26T00:16:55;15.30;99.90
21271;DHT22;10795;50.796;3.860;2022-10-26T00:19:21;15.20;99.90
21271;DHT22;10795;50.796;3.860;2022-10-26T00:21:46;15.00;99.90
21271;DHT22;10795;50.796;3.860;2022-10-26T00:24:13;14.90;99.90
21271;DHT22;10795;50.796;3.860;2022-10-26T00:26:39;14.80;99.90
21271;DHT22;10795;50.796;3.860;2022-10-26T00:29:05;14.90;99.90
21271;DHT22;10795;50.796;3.860;2022-10-26T00:31:31;14.80;99.90
21271;DHT22;10795;50.796;3.860;2022-10-26T00:33:57;14.80;99.90
21271;DHT22;10795;50.796;3.860;2022-10-26T00:36:23;15.00;99.90
21271;DHT22;10795;50.796;3.860;2022-10-26T00:38:51;14.90;99.90
21271;DHT22;10795;50.796;3.860;2022-10-26T00:41:20;14.70;99.90
21271;DHT22;10795;50.796;3.860;2022-10-26T00:43:47;14.70;99.90
21271;DHT22;10795;50.796;3.860;2022-10-26T00:46:20;14.60;99.90
21271;DHT22;10795;50.796;3.860;2022-10-26T00:48:50;14.40;99.90
21271;DHT22;10795;50.796;3.860;2022-10-26T00:51:29;14.40;99.90
21271;DHT22;10795;50.796;3.860;2022-10-26T00:53:59;14.40;99.90
21271;DHT22;10795;50.796;3.860;2022-10-26T00:56:26;14.60;99.90
21271;DHT22;10795;50.796;3.860;2022-10-26T00:58:53;14.60;99.90
21271;DHT22;10795;50.796;3.860;2022-10-26T01:01:20;14.50;99.90
21271;DHT22;10795;50.796;3.860;2022-10-26T01:03:46;14.50;99.90
21271;DHT22;10795;50.796;3.860;2022-10-26T01:06:13;14.50;99.90
21271;DHT22;10795;50.796;3.860;2022-10-26T01:08:41;14.50;99.90
21271;DHT22;10795;50.796;3.860;2022-10-26T01:11:07;14.50;99.90
21271;DHT22;10795;50.796;3.860;2022-10-26T01:13:34;14.50;99.90
21271;DHT22;10795;50.796;3.860;2022-10-26T01:21:46;14.60;99.90
21271;DHT22;10795;50.796;3.860;2022-10-26T01:24:28;14.80;99.90
21271;DHT22;10795;50.796;3.860;2022-10-26T01:27:23;14.80;99.90
21271;DHT22;10795;50.796;3.860;2022-10-26T01:35:20;15.20;99.90
21271;DHT22;10795;50.796;3.860;2022-10-26T01:37:58;15.10;99.90
21271;DHT22;10795;50.796;3.860;2022-10-26T01:40:33;15.00;99.90
21271;DHT22;10795;50.796;3.860;2022-10-26T01:43:03;14.80;99.90
21271;DHT22;10795;50.796;3.860;2022-10-26T01:45:31;14.70;99.90
21271;DHT22;10795;50.796;3.860;2022-10-26T01:47:58;14.60;99.90
21271;DHT22;10795;50.796;3.860;2022-10-26T01:50:26;14.60;99.90
21271;DHT22;10795;50.796;3.860;2022-10-26T01:52:53;14.60;99.90
21271;DHT22;10795;50.796;3.860;2022-10-26T01:55:44;14.60;99.90
21271;DHT22;10795;50.796;3.860;2022-10-26T02:00:57;14.50;99.90
21271;DHT22;10795;50.796;3.860;2022-10-26T02:03:54;14.50;99.90
21271;DHT22;10795;50.796;3.860;2022-10-26T02:11:42;14.60;99.90
21271;DHT22;10795;50.796;3.860;2022-10-26T02:17:07;14.40;99.90
21271;DHT22;10795;50.796;3.860;2022-10-26T02:19:58;14.40;99.90
21271;DHT22;10795;50.796;3.860;2022-10-26T02:22:39;14.40;99.90
21271;DHT22;10795;50.796;3.860;2022-10-26T02:25:10;14.50;99.90
21271;DHT22;10795;50.796;3.860;2022-10-26T02:27:41;14.50;99.90
21271;DHT22;10795;50.796;3.860;2022-10-26T02:30:10;14.40;99.90
21271;DHT22;10795;50.796;3.860;2022-10-26T02:32:40;14.50;99.90
21271;DHT22;10795;50.796;3.860;2022-10-26T02:35:07;14.50;99.90
21271;DHT22;10795;50.796;3.860;2022-10-26T02:37:34;14.50;99.90
21271;DHT22;10795;50.796;3.860;2022-10-26T02:40:03;14.50;99.90
21271;DHT22;10795;50.796;3.860;2022-10-26T02:42:31;14.30;99.90
21271;DHT22;10795;50.796;3.860;2022-10-26T02:45:02;14.30;99.90
21271;DHT22;10795;50.796;3.860;2022-10-26T02:47:29;14.30;99.90
21271;DHT22;10795;50.796;3.860;2022-10-26T02:49:55;14.40;99.90
21271;DHT22;10795;50.796;3.860;2022-10-26T02:55:26;14.40;99.90
21271;DHT22;10795;50.796;3.860;2022-10-26T02:57:59;14.40;99.90
21271;DHT22;10795;50.796;3.860;2022-10-26T03:00:26;14.50;99.90
21271;DHT22;10795;50.796;3.860;2022-10-26T03:02:56;14.50;99.90
21271;DHT22;10795;50.796;3.860;2022-10-26T03:05:25;14.50;99.90
21271;DHT22;10795;50.796;3.860;2022-10-26T03:07:51;14.50;99.90
21271;DHT22;10795;50.796;3.860;2022-10-26T03:10:17;14.60;99.90
21271;DHT22;10795;50.796;3.860;2022-10-26T03:12:43;14.60;99.90
21271;DHT22;10795;50.796;3.860;2022-10-26T03:15:09;14.60;99.90
21271;DHT22;10795;50.796;3.860;2022-10-26T03:17:35;14.60;99.90
21271;DHT22;10795;50.796;3.860;2022-10-26T03:20:01;14.70;99.90
21271;DHT22;10795;50.796;3.860;2022-10-26T03:22:27;14.70;99.90
21271;DHT22;10795;50.796;3.860;2022-10-26T03:24:53;14.70;99.90
21271;DHT22;10795;50.796;3.860;2022-10-26T03:27:19;14.70;99.90
21271;DHT22;10795;50.796;3.860;2022-10-26T03:29:45;14.80;99.90
21271;DHT22;10795;50.796;3.860;2022-10-26T03:32:10;14.90;99.90
21271;DHT22;10795;50.796;3.860;2022-10-26T03:34:36;14.90;99.90
21271;DHT22;10795;50.796;3.860;2022-10-26T03:37:02;14.90;99.90
21271;DHT22;10795;50.796;3.860;2022-10-26T03:39:27;14.90;99.90
21271;DHT22;10795;50.796;3.860;2022-10-26T03:41:53;15.10;99.90
21271;DHT22;10795;50.796;3.860;2022-10-26T03:44:21;15.00;99.90
21271;DHT22;10795;50.796;3.860;2022-10-26T03:46:46;15.00;99.90
21271;DHT22;10795;50.796;3.860;2022-10-26T03:49:12;15.10;99.90
21271;DHT22;10795;50.796;3.860;2022-10-26T03:51:38;15.20;99.90
21271;DHT22;10795;50.796;3.860;2022-10-26T03:54:03;15.20;99.90
21271;DHT22;10795;50.796;3.860;2022-10-26T03:56:29;15.20;99.90
21271;DHT22;10795;50.796;3.860;2022-10-26T03:58:55;15.30;99.90
21271;DHT22;10795;50.796;3.860;2022-10-26T04:01:21;15.20;99.90
21271;DHT22;10795;50.796;3.860;2022-10-26T04:03:47;15.20;99.90
21271;DHT22;10795;50.796;3.860;2022-10-26T04:06:13;15.20;99.90
21271;DHT22;10795;50.796;3.860;2022-10-26T04:08:38;15.10;99.90
21271;DHT22;10795;50.796;3.860;2022-10-26T04:11:04;15.30;99.90
21271;DHT22;10795;50.796;3.860;2022-10-26T04:13:30;15.40;99.90
21271;DHT22;10795;50.796;3.860;2022-10-26T04:15:56;15.40;99.90
21271;DHT22;10795;50.796;3.860;2022-10-26T04:18:22;15.40;99.90
21271;DHT22;10795;50.796;3.860;2022-10-26T04:20:48;15.40;99.90
21271;DHT22;10795;50.796;3.860;2022-10-26T04:23:15;15.30;99.90
21271;DHT22;10795;50.796;3.860;2022-10-26T04:25:42;15.30;99.90
21271;DHT22;10795;50.796;3.860;2022-10-26T04:28:09;15.30;99.90
21271;DHT22;10795;50.796;3.860;2022-10-26T04:30:35;15.20;99.90
21271;DHT22;10795;50.796;3.860;2022-10-26T04:33:01;15.20;99.90
21271;DHT22;10795;50.796;3.860;2022-10-26T04:35:27;15.30;99.90
21271;DHT22;10795;50.796;3.860;2022-10-26T04:38:00;15.40;99.90
21271;DHT22;10795;50.796;3.860;2022-10-26T04:40:27;15.50;99.90
21271;DHT22;10795;50.796;3.860;2022-10-26T04:42:53;15.50;99.90
21271;DHT22;10795;50.796;3.860;2022-10-26T04:45:19;15.40;99.90
21271;DHT22;10795;50.796;3.860;2022-10-26T04:47:45;15.40;99.90
21271;DHT22;10795;50.796;3.860;2022-10-26T04:50:12;15.30;99.90
21271;DHT22;10795;50.796;3.860;2022-10-26T04:52:38;15.30;99.90
21271;DHT22;10795;50.796;3.860;2022-10-26T04:55:05;15.30;99.90
21271;DHT22;10795;50.796;3.860;2022-10-26T04:57:34;15.20;99.90
21271;DHT22;10795;50.796;3.860;2022-10-26T05:00:01;15.20;99.90
21271;DHT22;10795;50.796;3.860;2022-10-26T05:02:28;15.30;99.90
21271;DHT22;10795;50.796;3.860;2022-10-26T05:04:54;15.30;99.90
21271;DHT22;10795;50.796;3.860;2022-10-26T05:07:19;15.20;99.90
21271;DHT22;10795;50.796;3.860;2022-10-26T05:09:46;15.20;99.90
21271;DHT22;10795;50.796;3.860;2022-10-26T05:12:11;15.20;99.90
21271;DHT22;10795;50.796;3.860;2022-10-26T05:14:37;15.20;99.90
21271;DHT22;10795;50.796;3.860;2022-10-26T05:17:03;15.10;99.90
21271;DHT22;10795;50.796;3.860;2022-10-26T05:19:29;15.10;99.90
21271;DHT22;10795;50.796;3.860;2022-10-26T05:21:55;15.10;99.90
21271;DHT22;10795;50.796;3.860;2022-10-26T05:24:20;15.10;99.90
21271;DHT22;10795;50.796;3.860;2022-10-26T05:26:46;15.30;99.90
21271;DHT22;10795;50.796;3.860;2022-10-26T05:29:12;15.30;99.90
21271;DHT22;10795;50.796;3.860;2022-10-26T05:31:37;15.20;99.90
21271;DHT22;10795;50.796;3.860;2022-10-26T05:34:03;15.20;99.90
21271;DHT22;10795;50.796;3.860;2022-10-26T05:36:29;15.20;99.90
21271;DHT22;10795;50.796;3.860;2022-10-26T05:38:58;15.10;99.90
21271;DHT22;10795;50.796;3.860;2022-10-26T05:41:24;15.20;99.90
21271;DHT22;10795;50.796;3.860;2022-10-26T05:43:50;15.20;99.90
21271;DHT22;10795;50.796;3.860;2022-10-26T05:46:16;15.30;99.90
21271;DHT22;10795;50.796;3.860;2022-10-26T05:48:42;15.30;99.90
21271;DHT22;10795;50.796;3.860;2022-10-26T05:51:07;15.30;99.90
21271;DHT22;10795;50.796;3.860;2022-10-26T05:53:33;15.30;99.90
21271;DHT22;10795;50.796;3.860;2022-10-26T05:55:59;15.20;99.90
21271;DHT22;10795;50.796;3.860;2022-10-26T05:58:25;15.20;99.90
21271;DHT22;10795;50.796;3.860;2022-10-26T06:03:54;15.30;99.90
21271;DHT22;10795;50.796;3.860;2022-10-26T06:06:23;15.30;99.90
21271;DHT22;10795;50.796;3.860;2022-10-26T06:08:50;15.30;99.90
21271;DHT22;10795;50.796;3.860;2022-10-26T06:11:16;15.20;99.90
21271;DHT22;10795;50.796;3.860;2022-10-26T06:13:42;15.20;99.90
21271;DHT22;10795;50.796;3.860;2022-10-26T06:24:23;15.20;99.90
21271;DHT22;10795;50.796;3.860;2022-10-26T06:26:57;15.10;99.90
21271;DHT22;10795;50.796;3.860;2022-10-26T06:32:14;15.10;99.90
21271;DHT22;10795;50.796;3.860;2022-10-26T06:41:34;15.00;99.90
21271;DHT22;10795;50.796;3.860;2022-10-26T07:26:52;15.70;99.90
21271;DHT22;10795;50.796;3.860;2022-10-26T07:29:33;15.80;99.90
21271;DHT22;10795;50.796;3.860;2022-10-26T07:32:02;16.00;99.90
21271;DHT22;10795;50.796;3.860;2022-10-26T07:34:41;16.10;99.90
21271;DHT22;10795;50.796;3.860;2022-10-26T07:37:24;16.30;99.90
21271;DHT22;10795;50.796;3.860;2022-10-26T07:40:07;16.40;99.90
21271;DHT22;10795;50.796;3.860;2022-10-26T07:42:40;16.50;99.90
21271;DHT22;10795;50.796;3.860;2022-10-26T07:45:19;16.50;99.90
21271;DHT22;10795;50.796;3.860;2022-10-26T07:47:56;16.60;99.90
21271;DHT22;10795;50.796;3.860;2022-10-26T07:50:29;16.80;99.90
21271;DHT22;10795;50.796;3.860;2022-10-26T07:52:57;16.90;99.90
21271;DHT22;10795;50.796;3.860;2022-10-26T07:55:25;16.90;99.90
21271;DHT22;10795;50.796;3.860;2022-10-26T07:57:55;17.00;99.90
21271;DHT22;10795;50.796;3.860;2022-10-26T08:00:21;17.20;99.90
21271;DHT22;10795;50.796;3.860;2022-10-26T08:02:47;17.20;99.90
21271;DHT22;10795;50.796;3.860;2022-10-26T08:05:12;17.20;99.90
21271;DHT22;10795;50.796;3.860;2022-10-26T08:07:42;17.40;99.90
21271;DHT22;10795;50.796;3.860;2022-10-26T08:10:09;17.50;99.90
21271;DHT22;10795;50.796;3.860;2022-10-26T08:12:35;17.40;99.90
21271;DHT22;10795;50.796;3.860;2022-10-26T08:15:01;17.60;99.90
21271;DHT22;10795;50.796;3.860;2022-10-26T08:17:28;17.70;99.90
21271;DHT22;10795;50.796;3.860;2022-10-26T08:19:53;17.80;99.90
21271;DHT22;10795;50.796;3.860;2022-10-26T08:22:19;17.90;99.90
21271;DHT22;10795;50.796;3.860;2022-10-26T08:24:47;18.20;99.90
21271;DHT22;10795;50.796;3.860;2022-10-26T08:27:14;18.30;99.90
21271;DHT22;10795;50.796;3.860;2022-10-26T08:29:40;18.50;99.90
21271;DHT22;10795;50.796;3.860;2022-10-26T08:32:09;18.40;99.90
21271;DHT22;10795;50.796;3.860;2022-10-26T08:34:35;18.50;99.90
21271;DHT22;10795;50.796;3.860;2022-10-26T08:37:00;18.60;99.90
21271;DHT22;10795;50.796;3.860;2022-10-26T08:39:26;18.50;99.90
21271;DHT22;10795;50.796;3.860;2022-10-26T08:42:01;18.80;99.90
21271;DHT22;10795;50.796;3.860;2022-10-26T08:44:45;18.80;99.90
21271;DHT22;10795;50.796;3.860;2022-10-26T08:47:18;18.80;99.90
21271;DHT22;10795;50.796;3.860;2022-10-26T08:49:48;18.90;99.90
21271;DHT22;10795;50.796;3.860;2022-10-26T08:52:25;18.70;99.90
21271;DHT22;10795;50.796;3.860;2022-10-26T08:54:55;18.80;99.90
21271;DHT22;10795;50.796;3.860;2022-10-26T08:57:27;18.90;99.90
21271;DHT22;10795;50.796;3.860;2022-10-26T09:00:03;18.80;99.90
21271;DHT22;10795;50.796;3.860;2022-10-26T09:02:29;18.70;99.90
21271;DHT22;10795;50.796;3.860;2022-10-26T09:04:57;18.90;99.90
21271;DHT22;10795;50.796;3.860;2022-10-26T09:18:22;20.10;99.90
21271;DHT22;10795;50.796;3.860;2022-10-26T09:23:58;19.90;99.90
21271;DHT22;10795;50.796;3.860;2022-10-26T09:26:55;19.60;99.90
21271;DHT22;10795;50.796;3.860;2022-10-26T09:29:28;19.90;99.90
21271;DHT22;10795;50.796;3.860;2022-10-26T09:31:56;20.30;99.90
21271;DHT22;10795;50.796;3.860;2022-10-26T09:36:54;20.20;99.90
21271;DHT22;10795;50.796;3.860;2022-10-26T09:39:29;20.40;99.90
21271;DHT22;10795;50.796;3.860;2022-10-26T09:42:04;20.30;99.90
21271;DHT22;10795;50.796;3.860;2022-10-26T09:44:42;20.50;99.90
21271;DHT22;10795;50.796;3.860;2022-10-26T09:47:34;20.40;99.90
21271;DHT22;10795;50.796;3.860;2022-10-26T09:50:20;20.20;99.90
21271;DHT22;10795;50.796;3.860;2022-10-26T09:52:47;20.10;99.90
21271;DHT22;10795;50.796;3.860;2022-10-26T09:55:13;20.10;99.90
21271;DHT22;10795;50.796;3.860;2022-10-26T09:57:41;20.10;99.90
21271;DHT22;10795;50.796;3.860;2022-10-26T10:00:14;20.20;99.90
21271;DHT22;10795;50.796;3.860;2022-10-26T10:02:42;20.20;99.90
21271;DHT22;10795;50.796;3.860;2022-10-26T10:08:15;20.60;99.90
21271;DHT22;10795;50.796;3.860;2022-10-26T10:11:04;20.50;99.90
21271;DHT22;10795;50.796;3.860;2022-10-26T10:13:39;20.50;99.90
21271;DHT22;10795;50.796;3.860;2022-10-26T10:16:19;20.50;99.90
21271;DHT22;10795;50.796;3.860;2022-10-26T10:18:56;20.90;99.90
21271;DHT22;10795;50.796;3.860;2022-10-26T10:21:36;20.80;99.90
21271;DHT22;10795;50.796;3.860;2022-10-26T10:24:21;20.30;99.90
21271;DHT22;10795;50.796;3.860;2022-10-26T10:29:27;20.50;99.90
21271;DHT22;10795;50.796;3.860;2022-10-26T10:32:02;20.80;99.90
21271;DHT22;10795;50.796;3.860;2022-10-26T10:34:32;20.90;99.90
21271;DHT22;10795;50.796;3.860;2022-10-26T10:37:00;20.70;99.90
21271;DHT22;10795;50.796;3.860;2022-10-26T10:39:40;20.20;99.90
21271;DHT22;10795;50.796;3.860;2022-10-26T10:42:26;20.30;99.90
21271;DHT22;10795;50.796;3.860;2022-10-26T10:44:53;20.50;99.90
21271;DHT22;10795;50.796;3.860;2022-10-26T10:47:26;21.10;99.90
21271;DHT22;10795;50.796;3.860;2022-10-26T10:52:39;20.70;99.90
21271;DHT22;10795;50.796;3.860;2022-10-26T11:00:10;20.80;99.90
21271;DHT22;10795;50.796;3.860;2022-10-26T11:05:43;21.20;99.90
21271;DHT22;10795;50.796;3.860;2022-10-26T11:13:55;21.30;99.90
21271;DHT22;10795;50.796;3.860;2022-10-26T11:16:36;21.80;99.90
21271;DHT22;10795;50.796;3.860;2022-10-26T11:19:24;21.30;99.90
21271;DHT22;10795;50.796;3.860;2022-10-26T11:21:54;21.70;99.90
21271;DHT22;10795;50.796;3.860;2022-10-26T11:24:30;21.50;99.90
21271;DHT22;10795;50.796;3.860;2022-10-26T11:27:11;21.20;99.90
21271;DHT22;10795;50.796;3.860;2022-10-26T11:29:39;21.10;99.90
21271;DHT22;10795;50.796;3.860;2022-10-26T11:32:21;21.40;99.90
21271;DHT22;10795;50.796;3.860;2022-10-26T11:37:44;21.50;99.90
21271;DHT22;10795;50.796;3.860;2022-10-26T11:40:42;21.60;99.90
21271;DHT22;10795;50.796;3.860;2022-10-26T11:46:04;21.60;99.90
21271;DHT22;10795;50.796;3.860;2022-10-26T11:48:39;21.80;99.90
21271;DHT22;10795;50.796;3.860;2022-10-26T11:51:35;22.00;99.90
21271;DHT22;10795;50.796;3.860;2022-10-26T11:54:06;22.20;99.90
21271;DHT22;10795;50.796;3.860;2022-10-26T11:56:40;22.10;99.90
21271;DHT22;10795;50.796;3.860;2022-10-26T11:59:17;21.80;99.90
21271;DHT22;10795;50.796;3.860;2022-10-26T12:01:49;22.10;99.90
21271;DHT22;10795;50.796;3.860;2022-10-26T12:04:18;22.30;99.90
21271;DHT22;10795;50.796;3.860;2022-10-26T12:06:46;22.20;99.90
21271;DHT22;10795;50.796;3.860;2022-10-26T12:09:20;22.30;99.90
21271;DHT22;10795;50.796;3.860;2022-10-26T12:18:00;21.90;99.90
21271;DHT22;10795;50.796;3.860;2022-10-26T12:23:12;21.80;99.90
21271;DHT22;10795;50.796;3.860;2022-10-26T12:25:38;22.00;99.90
21271;DHT22;10795;50.796;3.860;2022-10-26T12:28:04;22.10;99.90
21271;DHT22;10795;50.796;3.860;2022-10-26T12:30:32;21.80;99.90
21271;DHT22;10795;50.796;3.860;2022-10-26T12:33:26;21.50;99.90
21271;DHT22;10795;50.796;3.860;2022-10-26T12:35:49;21.40;99.90
21271;DHT22;10795;50.796;3.860;2022-10-26T12:40:47;22.40;99.90
21271;DHT22;10795;50.796;3.860;2022-10-26T12:45:40;22.10;99.90
21271;DHT22;10795;50.796;3.860;2022-10-26T12:48:37;22.30;99.90
21271;DHT22;10795;50.796;3.860;2022-10-26T12:56:44;22.40;99.90
21271;DHT22;10795;50.796;3.860;2022-10-26T13:07:22;22.80;99.90
21271;DHT22;10795;50.796;3.860;2022-10-26T13:09:56;22.50;99.90
21271;DHT22;10795;50.796;3.860;2022-10-26T13:12:22;22.60;99.90
21271;DHT22;10795;50.796;3.860;2022-10-26T13:14:56;22.50;99.90
21271;DHT22;10795;50.796;3.860;2022-10-26T13:17:28;22.50;99.90
21271;DHT22;10795;50.796;3.860;2022-10-26T13:20:00;22.30;99.90
21271;DHT22;10795;50.796;3.860;2022-10-26T13:22:26;21.80;99.90
21271;DHT22;10795;50.796;3.860;2022-10-26T13:25:00;21.80;99.90
21271;DHT22;10795;50.796;3.860;2022-10-26T13:27:40;21.60;99.90
21271;DHT22;10795;50.796;3.860;2022-10-26T13:30:12;21.70;99.90
21271;DHT22;10795;50.796;3.860;2022-10-26T13:32:53;21.80;99.90
21271;DHT22;10795;50.796;3.860;2022-10-26T13:35:22;21.90;99.90
21271;DHT22;10795;50.796;3.860;2022-10-26T13:37:51;21.80;99.90
21271;DHT22;10795;50.796;3.860;2022-10-26T13:40:23;21.70;99.90
21271;DHT22;10795;50.796;3.860;2022-10-26T13:43:01;21.50;99.90
21271;DHT22;10795;50.796;3.860;2022-10-26T13:45:30;21.40;99.90
21271;DHT22;10795;50.796;3.860;2022-10-26T13:50:50;21.90;99.90
21271;DHT22;10795;50.796;3.860;2022-10-26T13:53:22;21.70;99.90
21271;DHT22;10795;50.796;3.860;2022-10-26T13:55:54;21.70;99.90
21271;DHT22;10795;50.796;3.860;2022-10-26T13:58:41;21.60;99.90
21271;DHT22;10795;50.796;3.860;2022-10-26T14:01:12;21.40;99.90
21271;DHT22;10795;50.796;3.860;2022-10-26T14:03:39;21.20;99.90
21271;DHT22;10795;50.796;3.860;2022-10-26T14:08:53;21.30;99.90
21271;DHT22;10795;50.796;3.860;2022-10-26T14:11:27;21.10;99.90
21271;DHT22;10795;50.796;3.860;2022-10-26T14:13:56;21.20;99.90
21271;DHT22;10795;50.796;3.860;2022-10-26T14:16:26;21.40;99.90
21271;DHT22;10795;50.796;3.860;2022-10-26T14:18:53;21.50;99.90
21271;DHT22;10795;50.796;3.860;2022-10-26T14:21:20;21.40;99.90
21271;DHT22;10795;50.796;3.860;2022-10-26T14:23:52;21.30;99.90
21271;DHT22;10795;50.796;3.860;2022-10-26T14:26:27;21.20;99.90
21271;DHT22;10795;50.796;3.860;2022-10-26T14:28:56;21.40;99.90
21271;DHT22;10795;50.796;3.860;2022-10-26T14:31:27;21.50;99.90
21271;DHT22;10795;50.796;3.860;2022-10-26T14:33:54;21.60;99.90
21271;DHT22;10795;50.796;3.860;2022-10-26T14:36:27;21.40;99.90
21271;DHT22;10795;50.796;3.860;2022-10-26T14:39:00;21.60;99.90
21271;DHT22;10795;50.796;3.860;2022-10-26T14:41:28;21.50;99.90
21271;DHT22;10795;50.796;3.860;2022-10-26T14:43:58;21.40;99.90
21271;DHT22;10795;50.796;3.860;2022-10-26T14:46:26;21.40;99.90
21271;DHT22;10795;50.796;3.860;2022-10-26T14:48:55;21.30;99.90
21271;DHT22;10795;50.796;3.860;2022-10-26T14:51:27;21.30;99.90
21271;DHT22;10795;50.796;3.860;2022-10-26T14:53:58;21.40;99.90
21271;DHT22;10795;50.796;3.860;2022-10-26T14:56:38;21.30;99.90
21271;DHT22;10795;50.796;3.860;2022-10-26T14:59:29;21.20;99.90
21271;DHT22;10795;50.796;3.860;2022-10-26T15:04:33;21.10;99.90
21271;DHT22;10795;50.796;3.860;2022-10-26T15:07:16;20.80;99.90
21271;DHT22;10795;50.796;3.860;2022-10-26T15:09:43;20.80;99.90
21271;DHT22;10795;50.796;3.860;2022-10-26T15:14:54;20.80;99.90
21271;DHT22;10795;50.796;3.860;2022-10-26T15:17:24;20.70;99.90
21271;DHT22;10795;50.796;3.860;2022-10-26T15:19:52;20.70;99.90
21271;DHT22;10795;50.796;3.860;2022-10-26T15:22:25;20.50;99.90
21271;DHT22;10795;50.796;3.860;2022-10-26T15:24:55;20.40;99.90
21271;DHT22;10795;50.796;3.860;2022-10-26T15:27:22;20.40;99.90
21271;DHT22;10795;50.796;3.860;2022-10-26T15:29:51;20.60;99.90
21271;DHT22;10795;50.796;3.860;2022-10-26T15:32:30;20.40;99.90
21271;DHT22;10795;50.796;3.860;2022-10-26T15:37:43;20.40;99.90
21271;DHT22;10795;50.796;3.860;2022-10-26T15:40:09;20.30;99.90
21271;DHT22;10795;50.796;3.860;2022-10-26T15:42:37;20.60;99.90
21271;DHT22;10795;50.796;3.860;2022-10-26T15:45:04;20.40;99.90
21271;DHT22;10795;50.796;3.860;2022-10-26T15:47:38;20.30;99.90
21271;DHT22;10795;50.796;3.860;2022-10-26T15:50:04;20.50;99.90
21271;DHT22;10795;50.796;3.860;2022-10-26T15:52:30;20.40;99.90
21271;DHT22;10795;50.796;3.860;2022-10-26T15:54:56;20.40;99.90
21271;DHT22;10795;50.796;3.860;2022-10-26T15:57:23;20.40;99.90
21271;DHT22;10795;50.796;3.860;2022-10-26T15:59:50;20.50;99.90
21271;DHT22;10795;50.796;3.860;2022-10-26T16:02:16;20.40;99.90
21271;DHT22;10795;50.796;3.860;2022-10-26T16:04:42;20.50;99.90
21271;DHT22;10795;50.796;3.860;2022-10-26T16:07:12;20.30;99.90
21271;DHT22;10795;50.796;3.860;2022-10-26T16:09:39;20.00;99.90
21271;DHT22;10795;50.796;3.860;2022-10-26T16:12:12;20.00;99.90
21271;DHT22;10795;50.796;3.860;2022-10-26T16:14:38;19.90;99.90
21271;DHT22;10795;50.796;3.860;2022-10-26T16:17:05;19.90;99.90
21271;DHT22;10795;50.796;3.860;2022-10-26T16:19:32;19.80;99.90
21271;DHT22;10795;50.796;3.860;2022-10-26T16:21:59;19.80;99.90
21271;DHT22;10795;50.796;3.860;2022-10-26T16:24:29;19.80;99.90
21271;DHT22;10795;50.796;3.860;2022-10-26T16:26:55;19.70;99.90
21271;DHT22;10795;50.796;3.860;2022-10-26T16:29:22;19.50;99.90
21271;DHT22;10795;50.796;3.860;2022-10-26T16:31:48;19.40;99.90
21271;DHT22;10795;50.796;3.860;2022-10-26T16:34:14;19.40;99.90
21271;DHT22;10795;50.796;3.860;2022-10-26T16:36:40;19.30;99.90
21271;DHT22;10795;50.796;3.860;2022-10-26T16:39:07;19.40;99.90
21271;DHT22;10795;50.796;3.860;2022-10-26T16:41:33;19.50;99.90
21271;DHT22;10795;50.796;3.860;2022-10-26T16:43:59;19.50;99.90
21271;DHT22;10795;50.796;3.860;2022-10-26T16:46:25;19.70;99.90
21271;DHT22;10795;50.796;3.860;2022-10-26T16:48:51;19.50;99.90
21271;DHT22;10795;50.796;3.860;2022-10-26T16:51:26;19.70;99.90
21271;DHT22;10795;50.796;3.860;2022-10-26T16:53:54;19.40;99.90
21271;DHT22;10795;50.796;3.860;2022-10-26T16:56:22;19.60;99.90
21271;DHT22;10795;50.796;3.860;2022-10-26T16:58:48;19.50;99.90
21271;DHT22;10795;50.796;3.860;2022-10-26T17:01:15;19.60;99.90
21271;DHT22;10795;50.796;3.860;2022-10-26T17:03:45;19.50;99.90
21271;DHT22;10795;50.796;3.860;2022-10-26T17:06:11;19.60;99.90
21271;DHT22;10795;50.796;3.860;2022-10-26T17:08:37;19.70;99.90
21271;DHT22;10795;50.796;3.860;2022-10-26T17:11:04;19.40;99.90
21271;DHT22;10795;50.796;3.860;2022-10-26T17:13:30;19.20;99.90
21271;DHT22;10795;50.796;3.860;2022-10-26T17:16:11;19.10;99.90
21271;DHT22;10795;50.796;3.860;2022-10-26T17:18:41;19.30;99.90
21271;DHT22;10795;50.796;3.860;2022-10-26T17:21:10;19.50;99.90
21271;DHT22;10795;50.796;3.860;2022-10-26T17:23:37;19.20;99.90
21271;DHT22;10795;50.796;3.860;2022-10-26T17:26:05;18.90;99.90
21271;DHT22;10795;50.796;3.860;2022-10-26T17:32:00;18.80;99.90
21271;DHT22;10795;50.796;3.860;2022-10-26T17:34:26;18.70;99.90
21271;DHT22;10795;50.796;3.860;2022-10-26T17:36:52;18.60;99.90
21271;DHT22;10795;50.796;3.860;2022-10-26T17:39:18;18.40;99.90
21271;DHT22;10795;50.796;3.860;2022-10-26T17:41:44;18.10;99.90
21271;DHT22;10795;50.796;3.860;2022-10-26T17:44:12;18.10;99.90
21271;DHT22;10795;50.796;3.860;2022-10-26T17:46:37;18.10;99.90
21271;DHT22;10795;50.796;3.860;2022-10-26T17:49:05;18.10;99.90
21271;DHT22;10795;50.796;3.860;2022-10-26T17:51:34;18.20;99.90
21271;DHT22;10795;50.796;3.860;2022-10-26T17:54:00;18.20;99.90
21271;DHT22;10795;50.796;3.860;2022-10-26T17:56:29;18.20;99.90
21271;DHT22;10795;50.796;3.860;2022-10-26T17:58:57;18.30;99.90
21271;DHT22;10795;50.796;3.860;2022-10-26T18:01:23;18.40;99.90
21271;DHT22;10795;50.796;3.860;2022-10-26T18:03:50;18.30;99.90
21271;DHT22;10795;50.796;3.860;2022-10-26T18:06:16;18.50;99.90
21271;DHT22;10795;50.796;3.860;2022-10-26T18:08:42;18.40;99.90
21271;DHT22;10795;50.796;3.860;2022-10-26T18:11:15;18.40;99.90
21271;DHT22;10795;50.796;3.860;2022-10-26T18:13:44;18.40;99.90
21271;DHT22;10795;50.796;3.860;2022-10-26T18:16:12;18.20;99.90
21271;DHT22;10795;50.796;3.860;2022-10-26T18:18:40;18.10;99.90
21271;DHT22;10795;50.796;3.860;2022-10-26T18:21:08;18.00;99.90
21271;DHT22;10795;50.796;3.860;2022-10-26T18:23:35;18.00;99.90
21271;DHT22;10795;50.796;3.860;2022-10-26T18:26:03;18.10;99.90
21271;DHT22;10795;50.796;3.860;2022-10-26T18:28:31;17.80;99.90
21271;DHT22;10795;50.796;3.860;2022-10-26T18:31:02;17.80;99.90
21271;DHT22;10795;50.796;3.860;2022-10-26T18:33:32;18.00;99.90
21271;DHT22;10795;50.796;3.860;2022-10-26T18:36:02;17.90;99.90
21271;DHT22;10795;50.796;3.860;2022-10-26T18:38:29;18.00;99.90
21271;DHT22;10795;50.796;3.860;2022-10-26T18:40:55;17.80;99.90
21271;DHT22;10795;50.796;3.860;2022-10-26T18:43:24;17.90;99.90
21271;DHT22;10795;50.796;3.860;2022-10-26T18:45:50;18.10;99.90